createdAt,value
2018-08-25T00:01:05.467Z,7.80
2018-08-25T00:03:33.908Z,7.57
2018-08-25T00:06:02.481Z,7.23
2018-08-25T00:08:31.000Z,7.10
2018-08-25T00:10:59.504Z,6.97
2018-08-25T00:13:27.960Z,7.60
2018-08-25T00:15:56.497Z,7.27
2018-08-25T00:18:25.084Z,7.90
2018-08-25T00:20:53.706Z,8.33
2018-08-25T00:23:22.333Z,7.50
2018-08-25T00:25:50.757Z,7.47
2018-08-25T00:28:19.221Z,7.30
2018-08-25T00:30:53.244Z,7.00
2018-08-25T00:33:21.725Z,6.87
2018-08-25T00:35:50.246Z,6.80
2018-08-25T00:38:18.627Z,7.43
2018-08-25T00:40:47.140Z,6.50
2018-08-25T00:43:15.676Z,7.20
2018-08-25T00:45:44.692Z,7.20
2018-08-25T00:48:13.540Z,6.57
2018-08-25T00:50:42.041Z,6.30
2018-08-25T00:53:10.725Z,5.93
2018-08-25T00:55:39.296Z,6.07
2018-08-25T00:58:08.157Z,6.07
2018-08-25T01:00:36.697Z,6.20
2018-08-25T01:03:05.194Z,6.73
2018-08-25T01:05:33.834Z,6.50
2018-08-25T01:08:02.337Z,6.07
2018-08-25T01:10:30.817Z,6.13
2018-08-25T01:12:59.345Z,5.80
2018-08-25T01:15:28.298Z,6.70
2018-08-25T01:17:56.916Z,5.83
2018-08-25T01:20:25.449Z,5.60
2018-08-25T01:22:53.940Z,5.10
2018-08-25T01:25:22.384Z,5.03
2018-08-25T01:27:50.894Z,5.10
2018-08-25T01:30:19.348Z,5.10
2018-08-25T01:32:47.824Z,4.77
2018-08-25T01:35:16.366Z,5.37
2018-08-25T01:37:45.640Z,4.63
2018-08-25T01:40:14.795Z,4.93
2018-08-25T01:42:43.804Z,5.07
2018-08-25T01:45:12.347Z,4.97
2018-08-25T01:47:41.337Z,5.23
2018-08-25T01:50:09.915Z,5.70
2018-08-25T01:52:38.378Z,8.60
2018-08-25T01:55:07.173Z,10.53
2018-08-25T01:57:35.640Z,9.87
2018-08-25T02:00:04.150Z,8.47
2018-08-25T02:02:32.644Z,7.30
2018-08-25T02:05:01.357Z,6.87
2018-08-25T02:07:29.817Z,6.50
2018-08-25T02:09:58.199Z,6.03
2018-08-25T02:12:26.550Z,6.80
2018-08-25T02:14:55.056Z,6.50
2018-08-25T02:17:23.464Z,6.00
2018-08-25T02:19:51.994Z,6.43
2018-08-25T02:22:20.427Z,5.63
2018-08-25T02:24:48.954Z,6.10
2018-08-25T02:27:17.460Z,5.93
2018-08-25T02:29:45.940Z,5.87
2018-08-25T02:32:14.696Z,6.03
2018-08-25T02:34:43.650Z,5.80
2018-08-25T02:37:12.101Z,5.60
2018-08-25T02:39:40.932Z,5.47
2018-08-25T02:42:09.361Z,5.60
2018-08-25T02:44:37.840Z,7.87
2018-08-25T02:47:06.327Z,7.53
2018-08-25T02:49:34.810Z,6.57
2018-08-25T02:52:03.218Z,6.03
2018-08-25T02:54:31.771Z,6.10
2018-08-25T02:57:00.194Z,5.93
2018-08-25T02:59:28.671Z,5.60
2018-08-25T03:01:57.084Z,5.90
2018-08-25T03:04:25.597Z,5.90
2018-08-25T03:06:54.046Z,5.00
2018-08-25T03:09:22.532Z,5.33
2018-08-25T03:11:50.936Z,5.47
2018-08-25T03:14:19.475Z,5.10
2018-08-25T03:16:47.925Z,5.53
2018-08-25T03:19:16.390Z,4.90
2018-08-25T03:21:45.638Z,4.80
2018-08-25T03:24:15.051Z,4.73
2018-08-25T03:26:44.812Z,4.90
2018-08-25T03:29:15.473Z,4.80
2018-08-25T03:31:44.613Z,4.27
2018-08-25T03:34:13.625Z,4.27
2018-08-25T03:36:42.062Z,4.30
2018-08-25T03:39:11.819Z,4.00
2018-08-25T03:41:40.353Z,4.17
2018-08-25T03:44:09.641Z,4.10
2018-08-25T03:46:38.077Z,3.67
2018-08-25T03:49:06.810Z,3.50
2018-08-25T03:51:35.191Z,4.27
2018-08-25T03:54:04.033Z,4.10
2018-08-25T03:56:32.564Z,3.90
2018-08-25T03:59:01.045Z,4.20
2018-08-25T04:01:29.598Z,4.13
2018-08-25T04:03:58.181Z,4.37
2018-08-25T04:06:26.630Z,4.07
2018-08-25T04:08:55.370Z,4.27
2018-08-25T04:11:23.842Z,4.17
2018-08-25T04:13:52.293Z,4.33
2018-08-25T04:16:20.810Z,4.47
2018-08-25T04:18:49.308Z,4.33
2018-08-25T04:21:17.759Z,4.80
2018-08-25T04:23:46.165Z,4.93
2018-08-25T04:26:15.153Z,4.97
2018-08-25T04:28:44.211Z,5.00
2018-08-25T04:31:13.483Z,5.20
2018-08-25T04:33:41.995Z,4.87
2018-08-25T04:36:10.418Z,5.07
2018-08-25T04:38:39.041Z,4.80
2018-08-25T04:41:07.606Z,5.23
2018-08-25T04:43:36.181Z,4.80
2018-08-25T04:46:04.723Z,5.33
2018-08-25T04:48:33.291Z,4.90
2018-08-25T04:51:01.747Z,5.27
2018-08-25T04:53:30.224Z,5.43
2018-08-25T04:55:58.700Z,5.00
2018-08-25T04:58:27.147Z,6.20
2018-08-25T05:00:55.623Z,5.73
2018-08-25T05:03:24.231Z,5.93
2018-08-25T05:05:52.720Z,5.63
2018-08-25T05:08:21.236Z,5.87
2018-08-25T05:10:49.655Z,5.67
2018-08-25T05:13:18.307Z,5.40
2018-08-25T05:15:46.739Z,5.30
2018-08-25T05:18:15.859Z,5.33
2018-08-25T05:20:44.997Z,5.27
2018-08-25T05:23:14.775Z,5.20
2018-08-25T05:25:43.925Z,5.70
2018-08-25T05:28:12.447Z,5.27
2018-08-25T05:30:40.873Z,4.33
2018-08-25T05:33:09.443Z,4.40
2018-08-25T05:35:37.994Z,4.70
2018-08-25T05:38:06.581Z,5.33
2018-08-25T05:40:35.063Z,4.93
2018-08-25T05:43:03.488Z,5.00
2018-08-25T05:45:31.998Z,5.07
2018-08-25T05:48:00.477Z,5.13
2018-08-25T05:50:28.993Z,5.37
2018-08-25T05:52:57.488Z,4.90
2018-08-25T05:55:26.005Z,4.70
2018-08-25T05:57:54.480Z,4.87
2018-08-25T06:00:23.048Z,4.70
2018-08-25T06:02:51.536Z,4.50
2018-08-25T06:05:19.989Z,4.50
2018-08-25T06:07:48.542Z,4.30
2018-08-25T06:10:16.979Z,4.57
2018-08-25T06:12:46.634Z,4.60
2018-08-25T06:15:15.717Z,4.70
2018-08-25T06:17:45.153Z,4.80
2018-08-25T06:20:14.482Z,5.07
2018-08-25T06:22:42.957Z,5.27
2018-08-25T06:25:11.316Z,5.10
2018-08-25T06:27:39.860Z,5.43
2018-08-25T06:30:08.802Z,4.87
2018-08-25T06:32:37.483Z,5.17
2018-08-25T06:35:06.139Z,5.20
2018-08-25T06:37:34.732Z,4.73
2018-08-25T06:40:03.145Z,5.00
2018-08-25T06:42:31.790Z,5.00
2018-08-25T06:45:00.324Z,4.67
2018-08-25T06:47:29.481Z,4.80
2018-08-25T06:49:57.902Z,6.40
2018-08-25T06:52:26.346Z,4.63
2018-08-25T06:54:55.151Z,25.53
2018-08-25T06:57:23.979Z,7.20
2018-08-25T06:59:52.347Z,4.93
2018-08-25T07:02:20.796Z,5.30
2018-08-25T07:04:49.247Z,4.77
2018-08-25T07:07:17.734Z,4.47
2018-08-25T07:09:46.733Z,5.78
2018-08-25T07:12:16.266Z,4.43
2018-08-25T07:14:45.635Z,5.65
2018-08-25T07:17:15.337Z,5.00
2018-08-25T07:19:44.847Z,4.40
2018-08-25T07:22:14.275Z,4.37
2018-08-25T07:24:43.426Z,4.37
2018-08-25T07:27:12.080Z,4.03
2018-08-25T07:29:40.679Z,3.70
2018-08-25T07:32:09.239Z,3.63
2018-08-25T07:34:37.886Z,3.57
2018-08-25T07:37:06.358Z,3.90
2018-08-25T07:39:34.830Z,3.43
2018-08-25T07:42:03.267Z,3.10
2018-08-25T07:44:31.763Z,3.33
2018-08-25T07:47:00.279Z,3.23
2018-08-25T07:49:28.791Z,3.43
2018-08-25T07:58:55.644Z,3.10
2018-08-25T08:01:24.358Z,3.50
2018-08-25T08:03:52.782Z,3.43
2018-08-25T08:06:21.325Z,3.40
2018-08-25T08:08:49.729Z,3.07
2018-08-25T08:11:18.254Z,3.50
2018-08-25T08:13:46.668Z,2.80
2018-08-25T08:16:16.155Z,3.40
2018-08-25T08:18:45.255Z,2.83
2018-08-25T08:21:14.560Z,2.73
2018-08-25T08:23:43.791Z,3.13
2018-08-25T08:26:12.321Z,2.57
2018-08-25T08:28:40.671Z,3.17
2018-08-25T08:31:09.189Z,4.17
2018-08-25T08:33:37.570Z,3.90
2018-08-25T08:36:06.196Z,2.80
2018-08-25T08:38:36.464Z,3.43
2018-08-25T08:41:04.877Z,2.73
2018-08-25T08:43:33.378Z,3.20
2018-08-25T08:46:01.981Z,3.17
2018-08-25T08:48:30.476Z,3.17
2018-08-25T08:50:58.898Z,2.80
2018-08-25T08:53:27.356Z,3.63
2018-08-25T08:55:55.887Z,3.33
2018-08-25T08:58:24.419Z,3.40
2018-08-25T09:00:53.035Z,3.63
2018-08-25T09:03:21.502Z,3.90
2018-08-25T09:05:50.422Z,3.53
2018-08-25T09:08:18.898Z,3.30
2018-08-25T09:10:47.615Z,2.70
2018-08-25T09:13:16.091Z,3.10
2018-08-25T09:15:45.653Z,2.70
2018-08-25T09:18:14.626Z,3.07
2018-08-25T09:20:44.299Z,2.70
2018-08-25T09:23:13.121Z,3.40
2018-08-25T09:25:41.630Z,3.47
2018-08-25T09:28:10.060Z,4.00
2018-08-25T09:30:38.596Z,3.70
2018-08-25T09:33:07.086Z,3.33
2018-08-25T09:35:35.733Z,3.70
2018-08-25T09:38:04.302Z,2.73
2018-08-25T09:40:32.771Z,3.13
2018-08-25T09:43:01.242Z,2.90
2018-08-25T09:45:29.808Z,3.53
2018-08-25T09:47:58.223Z,3.47
2018-08-25T09:50:26.685Z,2.93
2018-08-25T09:52:55.074Z,3.40
2018-08-25T09:55:23.593Z,3.00
2018-08-25T09:57:52.060Z,3.20
2018-08-25T10:00:20.574Z,2.90
2018-08-25T10:02:48.963Z,2.97
2018-08-25T10:05:17.519Z,3.10
2018-08-25T10:07:46.010Z,3.40
2018-08-25T10:10:15.336Z,3.10
2018-08-25T10:12:46.295Z,3.17
2018-08-25T10:15:16.416Z,3.17
2018-08-25T10:17:46.193Z,3.50
2018-08-25T10:20:15.793Z,2.87
2018-08-25T10:22:45.469Z,2.83
2018-08-25T10:25:14.583Z,2.77
2018-08-25T10:27:43.128Z,3.20
2018-08-25T10:30:11.691Z,3.10
2018-08-25T10:32:40.360Z,3.67
2018-08-25T10:35:08.897Z,3.60
2018-08-25T10:37:37.313Z,3.60
2018-08-25T10:40:06.212Z,2.70
2018-08-25T10:42:34.684Z,2.70
2018-08-25T10:45:05.504Z,3.10
2018-08-25T10:47:33.977Z,3.00
2018-08-25T10:50:03.752Z,3.10
2018-08-25T10:52:32.296Z,3.60
2018-08-25T10:55:00.855Z,2.70
2018-08-25T10:57:29.333Z,3.23
2018-08-25T10:59:57.717Z,3.27
2018-08-25T11:02:27.614Z,2.83
2018-08-25T11:04:56.247Z,2.67
2018-08-25T11:07:25.140Z,2.67
2018-08-25T11:09:54.281Z,2.60
2018-08-25T11:12:23.063Z,2.50
2018-08-25T11:14:51.557Z,2.30
2018-08-25T11:17:19.996Z,2.60
2018-08-25T11:19:48.376Z,2.27
2018-08-25T11:22:17.238Z,2.83
2018-08-25T11:24:46.718Z,2.70
2018-08-25T11:27:15.948Z,2.60
2018-08-25T11:29:45.439Z,2.50
2018-08-25T11:32:16.299Z,2.47
2018-08-25T11:34:45.317Z,2.77
2018-08-25T11:37:14.682Z,2.30
2018-08-25T11:39:43.842Z,2.13
2018-08-25T11:42:14.005Z,3.60
2018-08-25T11:44:42.403Z,3.20
2018-08-25T11:47:14.662Z,3.47
2018-08-25T11:49:44.060Z,3.17
2018-08-25T11:52:12.589Z,2.77
2018-08-25T11:54:41.277Z,2.80
2018-08-25T11:57:09.899Z,3.07
2018-08-25T11:59:38.318Z,2.73
2018-08-25T12:02:07.838Z,2.77
2018-08-25T12:04:36.411Z,3.00
2018-08-25T12:07:05.147Z,3.60
2018-08-25T12:09:33.664Z,3.10
2018-08-25T12:12:05.544Z,2.93
2018-08-25T12:14:34.150Z,3.13
2018-08-25T12:17:02.692Z,3.00
2018-08-25T12:19:31.147Z,3.00
2018-08-25T12:21:59.656Z,3.67
2018-08-25T12:24:28.115Z,2.90
2018-08-25T12:26:59.564Z,2.97
2018-08-25T12:29:28.056Z,2.50
2018-08-25T12:31:56.841Z,2.77
2018-08-25T12:34:25.255Z,2.60
2018-08-25T12:36:53.834Z,2.70
2018-08-25T12:39:22.356Z,2.17
2018-08-25T12:41:51.071Z,2.40
2018-08-25T12:44:19.526Z,2.40
2018-08-25T12:46:48.036Z,2.37
2018-08-25T12:49:16.438Z,2.27
2018-08-25T12:51:47.019Z,2.20
2018-08-25T12:54:16.736Z,2.37
2018-08-25T12:56:46.314Z,2.50
2018-08-25T12:59:15.903Z,2.93
2018-08-25T13:01:46.239Z,2.20
2018-08-25T13:04:15.729Z,2.90
2018-08-25T13:06:44.912Z,3.03
2018-08-25T13:09:14.114Z,2.53
2018-08-25T13:11:44.123Z,2.47
2018-08-25T13:14:12.578Z,2.43
2018-08-25T13:16:41.016Z,2.70
2018-08-25T13:19:09.490Z,2.57
2018-08-25T13:21:38.382Z,2.60
2018-08-25T13:24:06.772Z,2.73
2018-08-25T13:26:35.231Z,2.63
2018-08-25T13:29:03.642Z,2.70
2018-08-25T13:31:32.065Z,2.90
2018-08-25T13:34:00.506Z,2.67
2018-08-25T13:36:29.752Z,3.30
2018-08-25T13:38:58.120Z,2.43
2018-08-25T13:41:26.723Z,3.03
2018-08-25T13:43:55.197Z,2.87
2018-08-25T13:46:23.700Z,2.83
2018-08-25T13:48:52.463Z,2.90
2018-08-25T13:51:20.948Z,2.87
2018-08-25T13:53:49.391Z,3.27
2018-08-25T13:56:18.024Z,2.60
2018-08-25T13:58:46.485Z,2.57
2018-08-25T14:01:16.937Z,2.50
2018-08-25T14:03:45.791Z,2.57
2018-08-25T14:06:15.847Z,2.73
2018-08-25T14:08:44.923Z,2.97
2018-08-25T14:11:14.332Z,2.57
2018-08-25T14:13:42.801Z,2.43
2018-08-25T14:16:11.502Z,2.50
2018-08-25T14:18:39.996Z,2.83
2018-08-25T14:21:08.969Z,2.50
2018-08-25T14:23:37.391Z,2.90
2018-08-25T14:26:05.939Z,2.90
2018-08-25T14:28:34.639Z,2.97
2018-08-25T14:31:03.138Z,3.10
2018-08-25T14:33:31.572Z,3.37
2018-08-25T14:36:00.335Z,2.97
2018-08-25T14:38:28.936Z,3.17
2018-08-25T14:40:57.465Z,3.13
2018-08-25T14:43:25.912Z,2.77
2018-08-25T14:45:54.385Z,2.90
2018-08-25T14:48:22.843Z,3.30
2018-08-25T14:50:51.383Z,3.03
2018-08-25T14:53:19.890Z,2.80
2018-08-25T14:55:48.405Z,2.97
2018-08-25T14:58:16.837Z,2.63
2018-08-25T15:00:46.228Z,2.93
2018-08-25T15:03:15.787Z,2.90
2018-08-25T15:05:44.971Z,2.80
2018-08-25T15:08:14.041Z,2.70
2018-08-25T15:10:42.542Z,3.23
2018-08-25T15:13:10.974Z,2.90
2018-08-25T15:15:39.578Z,3.17
2018-08-25T15:18:15.614Z,2.80
2018-08-25T15:20:44.674Z,2.90
2018-08-25T15:23:13.933Z,2.57
2018-08-25T15:25:42.325Z,2.70
2018-08-25T15:28:10.843Z,2.53
2018-08-25T15:30:39.263Z,2.90
2018-08-25T15:33:07.829Z,2.50
2018-08-25T15:35:36.340Z,2.90
2018-08-25T15:38:05.413Z,2.60
2018-08-25T15:40:33.872Z,2.80
2018-08-25T15:43:02.358Z,3.10
2018-08-25T15:45:30.781Z,2.77
2018-08-25T15:47:59.281Z,2.47
2018-08-25T15:50:27.795Z,2.50
2018-08-25T15:52:56.296Z,3.20
2018-08-25T15:55:24.790Z,2.40
2018-08-25T15:57:53.353Z,2.53
2018-08-25T16:00:21.879Z,1.93
2018-08-25T16:02:50.497Z,2.13
2018-08-25T16:05:19.008Z,1.97
2018-08-25T16:07:47.561Z,2.00
2018-08-25T16:10:17.379Z,2.07
2018-08-25T16:12:46.431Z,1.87
2018-08-25T16:15:15.355Z,2.10
2018-08-25T16:17:45.145Z,1.80
2018-08-25T16:20:14.862Z,1.87
2018-08-25T16:22:44.401Z,1.60
2018-08-25T16:25:12.846Z,1.90
2018-08-25T16:27:42.567Z,2.03
2018-08-25T16:30:11.114Z,3.10
2018-08-25T16:32:39.637Z,3.70
2018-08-25T16:35:08.465Z,2.67
2018-08-25T16:37:36.942Z,2.50
2018-08-25T16:40:05.396Z,3.33
2018-08-25T16:42:33.940Z,2.17
2018-08-25T16:45:02.457Z,2.20
2018-08-25T16:47:31.154Z,2.15
2018-08-25T16:49:59.644Z,1.97
2018-08-25T16:52:28.196Z,2.03
2018-08-25T16:54:56.744Z,1.70
2018-08-25T16:57:25.154Z,1.93
2018-08-25T16:59:53.651Z,1.93
2018-08-25T17:02:22.038Z,1.60
2018-08-25T17:04:50.565Z,1.47
2018-08-25T17:07:19.313Z,1.40
2018-08-25T17:09:47.847Z,1.50
2018-08-25T17:12:17.375Z,1.40
2018-08-25T17:14:47.191Z,1.60
2018-08-25T17:17:17.174Z,1.50
2018-08-25T17:19:46.404Z,1.40
2018-08-25T17:22:15.491Z,1.50
2018-08-25T17:24:44.752Z,1.57
2018-08-25T17:27:14.090Z,1.47
2018-08-25T17:29:42.630Z,1.50
2018-08-25T17:32:11.230Z,1.40
2018-08-25T17:34:39.746Z,1.50
2018-08-25T17:37:08.259Z,1.10
2018-08-25T17:39:36.676Z,1.30
2018-08-25T17:42:05.863Z,1.30
2018-08-25T17:44:34.419Z,1.20
2018-08-25T17:47:02.959Z,1.10
2018-08-25T17:49:31.484Z,1.10
2018-08-25T17:51:59.894Z,1.20
2018-08-25T17:54:28.402Z,1.20
2018-08-25T17:56:57.361Z,1.30
2018-08-25T17:59:26.010Z,1.20
2018-08-25T18:01:54.542Z,1.50
2018-08-25T18:04:23.075Z,1.43
2018-08-25T18:06:51.568Z,1.60
2018-08-25T18:09:19.975Z,1.43
2018-08-25T18:11:48.534Z,1.50
2018-08-25T18:14:16.989Z,1.40
2018-08-25T18:16:45.843Z,1.50
2018-08-25T18:19:14.958Z,1.37
2018-08-25T18:21:43.491Z,1.23
2018-08-25T18:24:11.944Z,1.40
2018-08-25T18:26:40.470Z,1.17
2018-08-25T18:29:08.902Z,1.20
2018-08-25T18:31:37.508Z,1.17
2018-08-25T18:34:06.256Z,1.40
2018-08-25T18:36:34.696Z,1.27
2018-08-25T18:39:03.308Z,1.03
2018-08-25T18:41:31.847Z,1.37
2018-08-25T18:44:00.331Z,1.13
2018-08-25T18:46:28.808Z,1.20
2018-08-25T18:48:57.260Z,1.10
2018-08-25T18:51:25.855Z,1.40
2018-08-25T18:53:54.244Z,1.30
2018-08-25T18:56:22.819Z,1.27
2018-08-25T18:58:51.231Z,1.20
2018-08-25T19:01:19.983Z,1.30
2018-08-25T19:03:48.602Z,1.40
2018-08-25T19:06:17.183Z,1.40
2018-08-25T19:08:46.593Z,1.30
2018-08-25T19:11:16.121Z,1.50
2018-08-25T19:13:45.227Z,1.50
2018-08-25T19:16:15.036Z,1.47
2018-08-25T19:18:43.563Z,1.43
2018-08-25T19:21:12.075Z,1.20
2018-08-25T19:23:40.540Z,1.37
2018-08-25T19:26:09.218Z,1.47
2018-08-25T19:28:37.695Z,1.50
2018-08-25T19:31:06.197Z,1.60
2018-08-25T19:33:34.699Z,1.50
2018-08-25T19:36:03.685Z,1.70
2018-08-25T19:38:32.087Z,1.80
2018-08-25T19:41:00.624Z,1.70
2018-08-25T19:43:29.444Z,1.57
2018-08-25T19:45:58.090Z,1.70
2018-08-25T19:48:28.831Z,1.40
2018-08-25T19:50:57.319Z,1.60
2018-08-25T19:53:25.800Z,1.60
2018-08-25T19:57:18.703Z,1.50
2018-08-25T19:59:47.229Z,1.50
2018-08-25T20:02:16.255Z,1.43
2018-08-25T20:04:45.967Z,1.40
2018-08-25T20:07:14.443Z,1.47
2018-08-25T20:09:43.012Z,1.50
2018-08-25T20:12:11.506Z,1.77
2018-08-25T20:14:40.074Z,1.80
2018-08-25T20:17:08.526Z,1.43
2018-08-25T20:19:37.014Z,1.50
2018-08-25T20:22:07.514Z,1.60
2018-08-25T20:24:35.965Z,1.50
2018-08-25T20:27:04.615Z,1.73
2018-08-25T20:29:33.320Z,1.60
2018-08-25T20:32:01.799Z,1.77
2018-08-25T20:34:30.343Z,1.80
2018-08-25T20:36:58.803Z,1.80
2018-08-25T20:39:27.292Z,2.20
2018-08-25T20:41:55.772Z,1.70
2018-08-25T20:44:24.258Z,1.90
2018-08-25T20:46:52.779Z,2.10
2018-08-25T20:49:21.268Z,1.83
2018-08-25T20:51:49.699Z,1.73
2018-08-25T20:54:18.154Z,1.63
2018-08-25T20:56:46.687Z,2.00
2018-08-25T20:59:15.925Z,2.00
2018-08-25T21:01:45.591Z,2.00
2018-08-25T21:04:14.414Z,2.30
2018-08-25T21:06:42.910Z,1.70
2018-08-25T21:09:11.812Z,1.97
2018-08-25T21:11:40.228Z,1.63
2018-08-25T21:14:08.825Z,1.87
2018-08-25T21:16:37.320Z,1.67
2018-08-25T21:19:05.843Z,1.80
2018-08-25T21:21:34.275Z,1.70
2018-08-25T21:24:02.854Z,1.87
2018-08-25T21:26:31.344Z,1.83
2018-08-25T21:28:59.822Z,1.80
2018-08-25T21:31:28.322Z,1.90
2018-08-25T21:33:56.796Z,1.80
2018-08-25T21:36:25.200Z,2.03
2018-08-25T21:38:53.676Z,2.10
2018-08-25T21:41:22.098Z,2.10
2018-08-25T21:43:50.593Z,2.20
2018-08-25T21:46:19.031Z,2.00
2018-08-25T21:48:47.674Z,1.60
2018-08-25T21:51:17.374Z,2.10
2018-08-25T21:53:46.114Z,2.00
2018-08-25T21:56:14.567Z,1.97
2018-08-25T21:58:43.052Z,2.03
2018-08-25T22:01:11.566Z,1.73
2018-08-25T22:03:40.109Z,1.80
2018-08-25T22:06:08.560Z,2.37
2018-08-25T22:08:37.056Z,1.90
2018-08-25T22:11:05.521Z,2.00
2018-08-25T22:13:34.239Z,2.07
2018-08-25T22:16:02.662Z,2.20
2018-08-25T22:18:31.169Z,2.10
2018-08-25T22:20:59.564Z,1.90
2018-08-25T22:23:28.043Z,1.90
2018-08-25T22:25:56.499Z,1.97
2018-08-25T22:28:24.972Z,2.50
2018-08-25T22:30:53.482Z,2.13
2018-08-25T22:33:21.942Z,2.17
2018-08-25T22:35:50.380Z,2.27
2018-08-25T22:38:19.289Z,2.13
2018-08-25T22:40:47.729Z,2.10
2018-08-25T22:43:17.237Z,2.10
2018-08-25T22:45:47.306Z,2.10
2018-08-25T22:48:16.333Z,2.00
2018-08-25T22:50:45.768Z,1.97
2018-08-25T22:53:15.454Z,2.10
2018-08-25T22:55:45.052Z,2.30
2018-08-25T22:58:14.399Z,2.23
2018-08-25T23:00:42.837Z,2.37
2018-08-25T23:03:11.408Z,2.43
2018-08-25T23:05:39.890Z,2.43
2018-08-25T23:08:08.387Z,2.43
2018-08-25T23:10:36.824Z,2.20
2018-08-25T23:13:05.394Z,2.17
2018-08-25T23:15:33.876Z,2.23
2018-08-25T23:18:02.430Z,2.67
2018-08-25T23:20:30.872Z,2.23
2018-08-25T23:23:00.327Z,2.70
2018-08-25T23:25:28.728Z,3.03
2018-08-25T23:27:57.169Z,2.83
2018-08-25T23:30:25.711Z,2.70
2018-08-25T23:32:54.254Z,3.13
2018-08-25T23:35:22.676Z,3.47
2018-08-25T23:37:51.198Z,2.50
2018-08-25T23:40:19.649Z,2.80
2018-08-25T23:42:48.199Z,3.07
2018-08-25T23:45:16.651Z,2.80
2018-08-25T23:47:46.051Z,2.83
2018-08-25T23:50:15.612Z,3.40
2018-08-25T23:52:45.168Z,3.27
2018-08-25T23:55:14.447Z,2.77
2018-08-25T23:57:43.010Z,3.13
